首页
METAR-TAF:

METAR-TAF

机场 :

盖达尔·阿利耶夫国际机场

巴库, 阿塞拜疆

纬度: 40-27N, 经度: 050-04E, 海拔: -6米

当前天气观测

该预报发布于41分钟前的09:30 UTC
风速6节,风向西转西北
温度 28°C
湿度 32%
气压 1010 hPa
能见度10公里或以上
1500米以下无云,无积雨云

METAR: UBBB 010930Z 29006KT CAVOK 28/10 Q1010 R88/D NOSIG

时间: 14:11 (10:11 UTC)

预报

该预报发布于5小时和6分钟前的05:05 UTC
预报有效从01日的 06点(UTC)到 02日的 06点(UTC)
风速14节,风向北转西北
能见度10公里或以上
1500米以下无云,无积雨云
短暂存在
从 01日的 07点(UTC)到 01日的 10点(UTC)
风速4节,风向多变
成为
从 01日的 10点(UTC)到 01日的 12点(UTC)
风速8节,风向
短暂存在
从 01日的 18点(UTC)到 02日的 06点(UTC)
风速16节,风向南转西南
少量云层高于1200英尺

TAF: UBBB 010505Z 0106/0206 34014KT CAVOK TX27/0110Z TN16/0202Z TEMPO 0107/0110 VRB04KT BECMG 0110/0112 17008KT TEMPO 0118/0206 21016KT FEW012

超过4000个机场的气象观测和天气预报(METAR&TAF报告)。

可查询的气象台以黄色和红色小点在地图上表示。

将鼠标移到小点上方,可查看气象台名称。

然后点击查看天气观测和预报。

如需切换地图:点击带黑十字的绿色按钮放大地图;点击带横线的绿色按钮缩小地图;或者点击绿色箭头查看邻近地区的地图。


METAR-TAF: